createdAt,value
2018-03-29T07:20:18.990Z,88.30
2018-03-29T07:25:22.235Z,87.70
2018-03-29T07:30:25.445Z,86.70
2018-03-29T07:35:28.655Z,86.30
2018-03-29T07:40:32.052Z,84.80
2018-03-29T07:45:35.298Z,83.90
2018-03-29T07:50:38.614Z,84.70
2018-03-29T07:55:42.432Z,83.20
2018-03-29T08:00:46.128Z,83.50
2018-03-29T08:05:49.990Z,82.50
2018-03-29T08:10:53.313Z,82.50
2018-03-29T08:15:56.576Z,80.60
2018-03-29T08:21:00.186Z,81.10
2018-03-29T08:26:03.893Z,81.10
2018-03-29T08:31:07.517Z,78.30
2018-03-29T08:36:11.127Z,80.00
2018-03-29T08:41:14.430Z,80.00
2018-03-29T08:46:17.739Z,81.30
2018-03-29T08:51:21.057Z,80.50
2018-03-29T08:56:24.748Z,80.80
2018-03-29T09:01:27.969Z,80.80
2018-03-29T09:06:31.321Z,80.90
2018-03-29T09:11:34.789Z,81.20
2018-03-29T09:16:38.002Z,81.50
2018-03-29T09:21:41.724Z,78.20
2018-03-29T09:26:45.348Z,78.60
2018-03-29T09:31:48.957Z,78.20
2018-03-29T09:36:52.584Z,78.00
2018-03-29T09:41:55.803Z,78.00
2018-03-29T09:46:59.128Z,78.10
2018-03-29T09:52:02.436Z,79.80
2018-03-29T09:57:05.646Z,79.10
2018-03-29T10:02:14.658Z,76.70
2018-03-29T10:07:23.638Z,77.80
2018-03-29T10:12:26.994Z,76.00
2018-03-29T10:17:30.230Z,75.70
2018-03-29T10:22:33.560Z,75.10
2018-03-29T10:27:36.843Z,74.10
2018-03-29T10:32:40.057Z,71.90
2018-03-29T10:37:44.652Z,73.10
2018-03-29T10:42:48.556Z,73.40
2018-03-29T10:47:51.780Z,72.00
2018-03-29T10:52:55.393Z,70.20
2018-03-29T10:57:59.054Z,70.20
2018-03-29T11:03:02.290Z,70.20
2018-03-29T11:08:05.515Z,72.90
2018-03-29T11:13:09.129Z,74.00
2018-03-29T11:18:12.751Z,72.50
2018-03-29T11:23:16.432Z,72.30
2018-03-29T11:28:20.241Z,72.40
2018-03-29T11:33:23.549Z,70.80
2018-03-29T11:38:26.911Z,71.40
2018-03-29T11:43:30.130Z,70.50
2018-03-29T11:48:33.352Z,69.50
2018-03-29T11:53:36.686Z,69.80
2018-03-29T11:58:40.111Z,71.20
2018-03-29T12:03:43.724Z,70.20
2018-03-29T12:08:47.134Z,67.50
2018-03-29T12:13:50.516Z,65.20
2018-03-29T12:18:53.728Z,64.80
2018-03-29T12:23:56.978Z,63.30
2018-03-29T12:29:00.593Z,65.30
2018-03-29T12:34:03.862Z,65.30
2018-03-29T12:39:08.085Z,65.20
2018-03-29T12:44:11.516Z,64.20
2018-03-29T12:49:14.799Z,65.50
2018-03-29T12:54:18.051Z,65.10
2018-03-29T13:00:03.130Z,66.60
2018-03-29T13:05:06.840Z,66.30
2018-03-29T13:10:10.700Z,68.00
2018-03-29T13:15:13.930Z,68.00
2018-03-29T13:20:17.325Z,67.40
2018-03-29T13:25:20.570Z,65.40
2018-03-29T13:30:23.866Z,65.30
2018-03-29T13:35:27.098Z,65.10
2018-03-29T13:40:30.414Z,65.60
2018-03-29T13:45:33.642Z,64.20
2018-03-29T13:50:36.875Z,62.70
2018-03-29T13:55:40.225Z,60.70
2018-03-29T14:00:43.938Z,63.50
2018-03-29T14:05:47.617Z,63.30
2018-03-29T14:10:50.932Z,63.30
2018-03-29T14:15:54.307Z,64.70
2018-03-29T14:20:57.671Z,66.40
2018-03-29T14:26:00.992Z,69.70
2018-03-29T14:31:04.640Z,71.60
2018-03-29T14:36:07.855Z,71.50
2018-03-29T14:41:11.105Z,72.80
2018-03-29T14:46:14.821Z,76.80
2018-03-29T14:51:18.515Z,75.60
2018-03-29T14:56:21.854Z,75.60
2018-03-29T15:01:25.531Z,73.40
2018-03-29T15:06:28.752Z,73.40
2018-03-29T15:15:43.132Z,72.70
2018-03-29T15:20:46.466Z,75.40
2018-03-29T15:25:49.681Z,79.90
2018-03-29T15:30:53.386Z,77.60
2018-03-29T15:35:56.599Z,77.60
2018-03-29T15:40:59.876Z,78.70
2018-03-29T15:46:03.875Z,79.20
2018-03-29T15:51:07.127Z,80.90
2018-03-29T15:56:10.362Z,82.10
2018-03-29T16:01:13.716Z,85.20
2018-03-29T16:06:17.329Z,84.30
2018-03-29T16:11:20.549Z,85.90
2018-03-29T16:16:24.894Z,87.40
2018-03-29T16:21:28.174Z,88.80
2018-03-29T16:26:31.435Z,89.60
2018-03-29T16:31:34.819Z,91.10
2018-03-29T16:36:38.035Z,91.90
2018-03-29T16:41:41.646Z,91.10
2018-03-29T16:46:45.292Z,91.70
2018-03-29T16:51:48.696Z,91.70
2018-03-29T16:56:52.375Z,92.00
2018-03-29T17:01:56.109Z,92.40
2018-03-29T17:06:59.782Z,91.80
2018-03-29T17:12:03.030Z,91.80
2018-03-29T17:17:06.670Z,93.30
2018-03-29T17:22:09.909Z,93.30
2018-03-29T17:27:13.128Z,94.10
2018-03-29T17:32:16.413Z,93.70
2018-03-29T17:37:19.728Z,95.10
2018-03-29T17:42:22.954Z,95.10
2018-03-29T17:47:26.371Z,95.20
2018-03-29T17:52:29.601Z,95.10
2018-03-29T17:57:33.265Z,95.00
2018-03-29T18:02:37.015Z,95.00
2018-03-29T18:07:40.332Z,94.30
2018-03-29T18:12:44.261Z,95.10
2018-03-29T18:17:47.638Z,95.10
2018-03-29T18:22:50.979Z,95.40
2018-03-29T18:27:54.793Z,96.00
2018-03-29T18:32:59.088Z,96.00
2018-03-29T18:38:02.439Z,95.90
2018-03-29T18:43:06.153Z,97.10
2018-03-29T18:48:09.833Z,97.60
2018-03-29T18:53:13.261Z,97.60
2018-03-29T18:58:16.883Z,97.40
2018-03-29T19:03:20.591Z,96.80
2018-03-29T19:08:24.012Z,96.80
2018-03-29T19:13:27.236Z,97.10
2018-03-29T19:18:30.696Z,96.70
2018-03-29T19:23:33.947Z,96.70
2018-03-29T19:28:37.176Z,96.10
2018-03-29T19:33:40.448Z,96.70
2018-03-29T19:38:51.124Z,96.80
2018-03-29T19:43:55.520Z,96.70
2018-03-29T19:48:58.831Z,96.70
2018-03-29T19:54:02.073Z,96.70
2018-03-29T19:59:05.703Z,95.50
2018-03-29T20:04:09.099Z,95.50
2018-03-29T20:09:12.775Z,96.40
2018-03-29T20:14:15.990Z,96.40
2018-03-29T20:19:19.563Z,96.30
2018-03-29T20:24:23.234Z,96.40
2018-03-29T20:29:26.542Z,96.60
2018-03-29T20:34:29.809Z,96.50
2018-03-29T20:39:33.134Z,96.00
2018-03-29T20:44:36.340Z,96.50
2018-03-29T20:49:39.552Z,96.70
2018-03-29T20:54:42.772Z,96.90
2018-03-29T20:59:46.073Z,97.50
2018-03-29T21:04:49.903Z,97.90
2018-03-29T21:09:53.416Z,98.20
2018-03-29T21:14:57.701Z,98.60
2018-03-29T21:20:00.917Z,98.70
2018-03-29T21:25:04.256Z,98.80
2018-03-29T21:30:07.552Z,99.00
2018-03-29T21:35:10.984Z,99.10
2018-03-29T21:40:14.606Z,99.20
2018-03-29T21:45:18.212Z,99.10
2018-03-29T21:50:21.912Z,98.80
2018-03-29T21:55:25.136Z,98.80
2018-03-29T22:00:32.983Z,99.00
2018-03-29T22:05:36.257Z,98.70
2018-03-29T22:10:40.820Z,98.80
2018-03-29T22:15:44.199Z,98.80
2018-03-29T22:20:47.868Z,98.90
2018-03-29T22:25:51.068Z,98.90
2018-03-29T22:30:54.271Z,99.10
2018-03-29T22:35:57.611Z,98.80
2018-03-29T22:41:01.080Z,99.10
2018-03-29T22:46:04.323Z,98.80
2018-03-29T22:51:07.738Z,99.40
2018-03-29T22:56:12.289Z,99.60
2018-03-29T23:01:15.517Z,99.60
2018-03-29T23:06:18.794Z,99.50
2018-03-29T23:11:22.532Z,99.60
2018-03-29T23:16:25.823Z,99.60
2018-03-29T23:21:29.076Z,99.60
2018-03-29T23:26:39.420Z,99.60
2018-03-29T23:31:42.641Z,99.60
2018-03-29T23:36:45.856Z,99.60
2018-03-29T23:41:49.221Z,99.60
2018-03-29T23:46:52.490Z,99.60
2018-03-29T23:51:55.716Z,99.60
2018-03-29T23:56:58.958Z,99.60
